createdAt,value
2022-10-22T00:09:20.000Z,49.10
2022-10-22T00:19:20.000Z,71.30
2022-10-22T00:39:20.000Z,51.80
2022-10-22T00:49:20.000Z,52.00
2022-10-22T00:59:20.000Z,38.10
2022-10-22T01:09:20.000Z,42.20
2022-10-22T01:19:20.000Z,44.30
2022-10-22T01:29:20.000Z,32.60
2022-10-22T01:39:20.000Z,35.30
2022-10-22T01:49:20.000Z,44.90
2022-10-22T02:09:19.000Z,34.30
2022-10-22T02:19:19.000Z,27.80
2022-10-22T02:29:19.000Z,28.60
2022-10-22T02:39:19.000Z,27.40
2022-10-22T02:49:19.000Z,29.20
2022-10-22T02:59:19.000Z,36.70
2022-10-22T03:09:19.000Z,30.30
2022-10-22T03:19:19.000Z,37.80
2022-10-22T03:39:19.000Z,45.50
2022-10-22T03:49:19.000Z,31.40
2022-10-22T03:59:19.000Z,41.30
2022-10-22T04:09:19.000Z,37.30
2022-10-22T04:19:19.000Z,52.20
2022-10-22T04:29:19.000Z,38.30
2022-10-22T04:39:19.000Z,33.10
2022-10-22T04:49:19.000Z,36.10
2022-10-22T05:09:19.000Z,34.70
2022-10-22T05:19:18.000Z,28.50
2022-10-22T05:29:18.000Z,38.40
2022-10-22T05:39:18.000Z,47.00
2022-10-22T05:49:18.000Z,37.50
2022-10-22T05:59:18.000Z,32.00
2022-10-22T06:09:18.000Z,52.70
2022-10-22T06:19:18.000Z,41.40
2022-10-22T06:39:18.000Z,37.10
2022-10-22T06:49:18.000Z,45.70
2022-10-22T07:14:36.000Z,34.60
2022-10-22T07:14:36.000Z,24.80
2022-10-22T07:24:36.000Z,22.30
2022-10-22T07:34:36.000Z,18.20
2022-10-22T07:44:36.000Z,17.00
2022-10-22T07:54:36.000Z,15.30
2022-10-22T08:04:36.000Z,15.90
2022-10-22T08:14:36.000Z,14.90
2022-10-22T08:24:36.000Z,12.00
2022-10-22T08:44:36.000Z,21.10
2022-10-22T08:54:36.000Z,10.70
2022-10-22T09:04:36.000Z,9.60
2022-10-22T09:14:36.000Z,8.80
2022-10-22T09:24:36.000Z,8.20
2022-10-22T09:34:36.000Z,5.50
2022-10-22T09:44:36.000Z,6.10
2022-10-22T09:54:35.000Z,5.40
2022-10-22T10:14:35.000Z,4.60
2022-10-22T10:24:35.000Z,4.40
2022-10-22T10:34:35.000Z,3.40
2022-10-22T10:44:35.000Z,3.20
2022-10-22T11:14:51.000Z,4.40
2022-10-22T11:14:51.000Z,14.30
2022-10-22T11:24:51.000Z,3.50
2022-10-22T11:34:51.000Z,6.40
2022-10-22T11:44:50.000Z,3.10
2022-10-22T11:54:50.000Z,3.00
2022-10-22T12:04:50.000Z,4.10
2022-10-22T12:14:50.000Z,2.80
2022-10-22T12:24:49.000Z,3.10
2022-10-22T12:44:49.000Z,3.10
2022-10-22T12:54:49.000Z,3.00
2022-10-22T13:04:49.000Z,4.00
2022-10-22T13:14:48.000Z,7.20
2022-10-22T13:24:48.000Z,3.80
2022-10-22T13:34:48.000Z,3.70
2022-10-22T13:44:48.000Z,3.50
2022-10-22T13:54:48.000Z,4.20
2022-10-22T14:14:47.000Z,12.50
2022-10-22T14:24:47.000Z,5.10
2022-10-22T14:34:47.000Z,5.50
2022-10-22T14:44:47.000Z,9.00
2022-10-22T14:54:47.000Z,12.30
2022-10-22T15:04:46.000Z,6.10
2022-10-22T15:14:46.000Z,6.10
2022-10-22T15:24:46.000Z,6.00
2022-10-22T15:44:46.000Z,8.60
2022-10-22T15:54:45.000Z,5.60
2022-10-22T16:04:45.000Z,14.70
2022-10-22T16:14:45.000Z,20.30
2022-10-22T16:24:45.000Z,9.70
2022-10-22T16:34:45.000Z,18.50
2022-10-22T16:44:45.000Z,19.80
2022-10-22T16:54:45.000Z,15.10
2022-10-22T17:14:46.000Z,21.90
2022-10-22T17:24:46.000Z,14.40
2022-10-22T17:34:46.000Z,16.80
2022-10-22T17:44:46.000Z,46.30
2022-10-22T17:54:46.000Z,70.80
2022-10-22T18:04:47.000Z,63.40
2022-10-22T18:14:47.000Z,50.60
2022-10-22T18:24:47.000Z,20.30
2022-10-22T18:44:48.000Z,24.00
2022-10-22T18:54:48.000Z,26.50
2022-10-22T19:04:48.000Z,32.10
2022-10-22T19:14:49.000Z,17.70
2022-10-22T19:24:49.000Z,21.60
2022-10-22T19:34:49.000Z,13.40
2022-10-22T19:44:49.000Z,21.00
2022-10-22T19:54:50.000Z,18.00
2022-10-22T20:14:50.000Z,13.10
2022-10-22T20:24:51.000Z,15.70
2022-10-22T20:34:51.000Z,20.60
2022-10-22T20:44:51.000Z,23.40
2022-10-22T20:54:52.000Z,19.10
2022-10-22T21:04:52.000Z,14.30
2022-10-22T21:14:53.000Z,15.30
2022-10-22T21:24:53.000Z,22.50
2022-10-22T21:44:54.000Z,12.60
2022-10-22T21:54:54.000Z,13.80
2022-10-22T22:04:55.000Z,16.40
2022-10-22T22:14:55.000Z,12.80
2022-10-22T22:24:56.000Z,14.10
2022-10-22T22:34:56.000Z,41.70
2022-10-22T22:44:57.000Z,11.50
2022-10-22T22:54:57.000Z,34.70
2022-10-22T23:14:58.000Z,26.60
2022-10-22T23:24:59.000Z,33.90
2022-10-22T23:34:59.000Z,35.90
2022-10-22T23:45:00.000Z,35.80
2022-10-22T23:55:00.000Z,40.80
